createdAt,value
2018-07-23T00:00:34.834Z,86
2018-07-23T00:01:34.843Z,86.19
2018-07-23T00:02:34.816Z,86.29
2018-07-23T00:03:45.095Z,86.29
2018-07-23T00:04:34.974Z,85.9
2018-07-23T00:05:34.840Z,85.9
2018-07-23T00:06:34.893Z,86.29
2018-07-23T00:07:34.882Z,86.48
2018-07-23T00:08:34.901Z,86.58
2018-07-23T00:09:34.869Z,86.29
2018-07-23T00:10:34.879Z,86.09
2018-07-23T00:11:34.929Z,86.19
2018-07-23T00:12:34.855Z,86.09
2018-07-23T00:13:34.922Z,85.9
2018-07-23T00:14:34.913Z,85.8
2018-07-23T00:15:34.952Z,86.19
2018-07-23T00:16:34.891Z,86.38
2018-07-23T00:17:34.906Z,86.29
2018-07-23T00:18:34.797Z,86.38
2018-07-23T00:19:34.870Z,86.87
2018-07-23T00:20:34.864Z,86.68
2018-07-23T00:21:34.865Z,86.29
2018-07-23T00:22:34.814Z,86.58
2018-07-23T00:23:34.782Z,86.58
2018-07-23T00:24:34.794Z,86.19
2018-07-23T00:25:34.887Z,86.38
2018-07-23T00:26:34.815Z,86.38
2018-07-23T00:27:34.800Z,86.29
2018-07-23T00:28:34.815Z,86
2018-07-23T00:29:34.822Z,86.68
2018-07-23T00:30:34.811Z,86.58
2018-07-23T00:31:34.765Z,86.29
2018-07-23T00:32:34.801Z,86.48
2018-07-23T00:33:34.843Z,86.29
2018-07-23T00:34:34.851Z,86.29
2018-07-23T00:35:34.833Z,86
2018-07-23T00:36:34.909Z,86.38
2018-07-23T00:37:34.918Z,86
2018-07-23T00:38:34.966Z,86.48
2018-07-23T00:39:34.938Z,86.68
2018-07-23T00:40:34.901Z,86.77
2018-07-23T00:41:34.912Z,86.09
2018-07-23T00:42:35.026Z,86.19
2018-07-23T00:43:34.950Z,86.19
2018-07-23T00:44:35.017Z,86.48
2018-07-23T00:45:34.966Z,86.38
2018-07-23T00:46:34.969Z,86.29
2018-07-23T00:47:34.970Z,86.19
2018-07-23T00:48:34.965Z,86.19
2018-07-23T00:49:34.927Z,86.38
2018-07-23T00:50:34.967Z,86.58
2018-07-23T00:51:34.936Z,86.77
2018-07-23T00:52:35.043Z,86.68
2018-07-23T00:53:34.983Z,86.38
2018-07-23T00:54:34.954Z,86.29
2018-07-23T00:55:34.927Z,85.8
2018-07-23T00:56:34.963Z,86.38
2018-07-23T00:57:34.915Z,85.8
2018-07-23T00:58:34.904Z,86.19
2018-07-23T00:59:34.921Z,86.29
2018-07-23T01:00:34.968Z,85.8
2018-07-23T01:01:34.959Z,86
2018-07-23T01:02:34.971Z,86.29
2018-07-23T01:03:34.956Z,85.8
2018-07-23T01:04:34.926Z,86.29
2018-07-23T01:05:34.939Z,85.51
2018-07-23T01:06:34.943Z,86.09
2018-07-23T01:07:34.999Z,86.19
2018-07-23T01:08:34.916Z,86.29
2018-07-23T01:09:34.911Z,86.09
2018-07-23T01:10:34.960Z,85.9
2018-07-23T01:11:34.940Z,86.09
2018-07-23T01:12:34.966Z,85.9
2018-07-23T01:13:35.006Z,86.09
2018-07-23T01:14:34.955Z,86
2018-07-23T01:15:35.002Z,86.38
2018-07-23T01:16:34.967Z,86
2018-07-23T01:17:34.966Z,86.38
2018-07-23T01:18:34.981Z,85.8
2018-07-23T01:19:35.006Z,86.29
2018-07-23T01:20:34.997Z,85.71
2018-07-23T01:21:34.988Z,85.9
2018-07-23T01:22:34.971Z,86
2018-07-23T01:23:34.946Z,86.38
2018-07-23T01:24:35.017Z,86.77
2018-07-23T01:25:35.011Z,86
2018-07-23T01:26:35.050Z,86.38
2018-07-23T01:27:35.003Z,86.29
2018-07-23T01:28:34.977Z,86.29
2018-07-23T01:29:34.951Z,86.19
2018-07-23T01:30:34.980Z,86.19
2018-07-23T01:31:35.002Z,85.8
2018-07-23T01:32:35.020Z,85.9
2018-07-23T01:33:35.060Z,86.29
2018-07-23T01:34:34.986Z,86.09
2018-07-23T01:36:39.577Z,86.29
2018-07-23T01:36:51.989Z,85.9
2018-07-23T01:37:51.932Z,86.19
2018-07-23T01:38:51.896Z,86.68
2018-07-23T01:39:52.070Z,86.38
2018-07-23T01:40:51.913Z,86.29
2018-07-23T01:41:51.989Z,86.29
2018-07-23T01:42:51.927Z,86.29
2018-07-23T01:43:51.903Z,86.77
2018-07-23T01:44:51.937Z,86.38
2018-07-23T01:45:51.973Z,86.29
2018-07-23T01:46:51.976Z,86.58
2018-07-23T01:47:51.949Z,86.38
2018-07-23T01:48:51.907Z,86.38
2018-07-23T01:49:51.978Z,86.68
2018-07-23T01:50:51.935Z,86.77
2018-07-23T01:51:51.926Z,86.19
2018-07-23T01:52:51.912Z,86.58
2018-07-23T01:53:52.017Z,86.58
2018-07-23T01:54:52.081Z,86.29
2018-07-23T01:55:51.983Z,86.29
2018-07-23T01:56:52.289Z,86.19
2018-07-23T01:57:52.011Z,86.48
2018-07-23T01:58:52.072Z,86.48
2018-07-23T01:59:52.079Z,86.68
2018-07-23T02:00:52.047Z,86.58
2018-07-23T02:01:52.102Z,86.38
2018-07-23T02:02:52.082Z,86.19
2018-07-23T02:03:52.089Z,86.09
2018-07-23T02:04:52.028Z,86.19
2018-07-23T02:05:52.064Z,86.68
2018-07-23T02:06:52.085Z,86.68
2018-07-23T02:07:51.974Z,86.19
2018-07-23T02:08:52.039Z,86
2018-07-23T02:09:52.099Z,86.38
2018-07-23T02:10:51.975Z,86.29
2018-07-23T02:11:52.003Z,86.19
2018-07-23T02:12:52.017Z,86
2018-07-23T02:13:52.950Z,86.58
2018-07-23T02:14:52.366Z,85.9
2018-07-23T02:15:52.043Z,86.68
2018-07-23T02:16:52.013Z,86.48
2018-07-23T02:17:51.987Z,86.29
2018-07-23T02:18:52.080Z,86.58
2018-07-23T02:19:52.037Z,86.38
2018-07-23T02:20:52.041Z,86.19
2018-07-23T02:21:52.103Z,86.68
2018-07-23T02:22:52.004Z,86.87
2018-07-23T02:23:52.014Z,86.38
2018-07-23T02:24:52.029Z,86.58
2018-07-23T02:25:52.025Z,86.48
2018-07-23T02:26:52.069Z,86.68
2018-07-23T02:27:52.056Z,86.68
2018-07-23T02:28:52.065Z,86.48
2018-07-23T02:29:51.957Z,86.77
2018-07-23T02:30:52.027Z,86.09
2018-07-23T02:31:52.003Z,86.58
2018-07-23T02:32:52.023Z,86.29
2018-07-23T02:33:52.037Z,86
2018-07-23T02:34:52.053Z,86.68
2018-07-23T02:35:52.068Z,86.38
2018-07-23T02:36:51.973Z,86.38
2018-07-23T02:37:52.015Z,86.19
2018-07-23T02:38:52.046Z,86.58
2018-07-23T02:39:52.054Z,86.68
2018-07-23T02:40:52.037Z,86.87
2018-07-23T02:41:52.012Z,86.38
2018-07-23T02:42:52.066Z,86.19
2018-07-23T02:43:52.014Z,86.38
2018-07-23T02:44:52.012Z,86
2018-07-23T02:45:52.035Z,86.19
2018-07-23T02:46:52.024Z,86.09
2018-07-23T02:47:52.217Z,86.38
2018-07-23T02:48:52.015Z,85.9
2018-07-23T02:49:52.113Z,86.77
2018-07-23T02:50:52.020Z,86.58
2018-07-23T02:51:52.060Z,86.48
2018-07-23T02:52:52.068Z,86.29
2018-07-23T02:53:52.056Z,86.77
2018-07-23T02:54:52.110Z,86.19
2018-07-23T02:55:52.054Z,86.58
2018-07-23T02:56:52.068Z,86
2018-07-23T02:57:52.145Z,86
2018-07-23T02:58:52.133Z,86.68
2018-07-23T02:59:52.093Z,86.58
2018-07-23T03:00:52.064Z,86.29
2018-07-23T03:01:52.069Z,86.29
2018-07-23T03:02:52.122Z,86.09
2018-07-23T03:03:52.101Z,86.68
2018-07-23T03:04:52.098Z,86.19
2018-07-23T03:05:52.097Z,86.29
2018-07-23T03:07:52.135Z,86.19
2018-07-23T03:08:52.082Z,86.29
2018-07-23T03:09:52.108Z,86.38
2018-07-23T03:10:52.098Z,86.09
2018-07-23T03:11:52.097Z,86.87
2018-07-23T03:12:52.163Z,86
2018-07-23T03:13:52.093Z,86.77
2018-07-23T03:14:52.149Z,86.87
2018-07-23T03:15:52.145Z,86.29
2018-07-23T03:16:52.219Z,86.58
2018-07-23T03:17:52.129Z,86.58
2018-07-23T03:18:52.183Z,86.48
2018-07-23T03:19:52.076Z,87.06
2018-07-23T03:20:52.126Z,86.87
2018-07-23T03:21:52.290Z,86.09
2018-07-23T03:22:52.146Z,86.68
2018-07-23T03:23:52.131Z,86.77
2018-07-23T03:24:52.105Z,86.19
2018-07-23T03:25:52.126Z,86.58
2018-07-23T03:26:52.122Z,86.68
2018-07-23T03:27:52.088Z,86.19
2018-07-23T03:28:52.165Z,86.38
2018-07-23T03:29:52.103Z,85.8
2018-07-23T03:30:52.105Z,86.38
2018-07-23T03:31:52.129Z,86.38
2018-07-23T03:32:52.136Z,86.48
2018-07-23T03:33:52.124Z,86.19
2018-07-23T03:34:52.228Z,86.48
2018-07-23T03:35:52.231Z,86.29
2018-07-23T03:36:52.304Z,85.8
2018-07-23T03:37:52.304Z,86.48
2018-07-23T03:38:52.428Z,86.19
2018-07-23T03:39:52.313Z,86.38
2018-07-23T03:40:52.139Z,86.29
2018-07-23T03:41:52.234Z,86.09
2018-07-23T03:42:52.305Z,86.09
2018-07-23T03:43:52.236Z,85.8
2018-07-23T03:44:52.164Z,86.38
2018-07-23T03:45:52.148Z,86.09
2018-07-23T03:46:52.200Z,85.8
2018-07-23T03:47:52.132Z,86
2018-07-23T03:48:52.225Z,85.8
2018-07-23T03:49:52.127Z,86.19
2018-07-23T03:50:52.285Z,86.09
2018-07-23T03:51:52.116Z,85.9
2018-07-23T03:52:53.313Z,85.9
2018-07-23T03:53:52.132Z,86
2018-07-23T03:54:52.142Z,85.9
2018-07-23T03:55:52.161Z,86
2018-07-23T03:56:52.246Z,86.29
2018-07-23T03:57:52.182Z,86.19
2018-07-23T03:58:52.173Z,86.29
2018-07-23T03:59:52.165Z,86.29
2018-07-23T04:00:52.166Z,86.29
2018-07-23T04:01:52.178Z,86.19
2018-07-23T04:02:52.186Z,85.8
2018-07-23T04:03:52.214Z,85.9
2018-07-23T04:04:52.166Z,86.96
2018-07-23T04:05:52.234Z,86.29
2018-07-23T04:06:52.189Z,86.19
2018-07-23T04:07:52.257Z,86.58
2018-07-23T04:08:52.191Z,86.77
2018-07-23T04:09:52.231Z,85.8
2018-07-23T04:10:52.257Z,86.58
2018-07-23T04:11:52.186Z,86.58
2018-07-23T04:12:52.246Z,86.68
2018-07-23T04:13:52.235Z,85.9
2018-07-23T04:14:52.196Z,85.9
2018-07-23T04:15:52.252Z,86.19
2018-07-23T04:16:52.262Z,85.9
2018-07-23T04:17:52.606Z,86
2018-07-23T04:22:24.171Z,86
2018-07-23T04:23:23.563Z,86.29
2018-07-23T04:24:23.498Z,85.51
2018-07-23T04:25:23.473Z,85.51
2018-07-23T04:26:23.514Z,85.8
2018-07-23T04:27:23.478Z,85.51
2018-07-23T04:28:23.558Z,85.9
2018-07-23T04:29:23.516Z,85.51
2018-07-23T04:30:23.514Z,85.61
2018-07-23T04:31:23.541Z,86.09
2018-07-23T04:32:23.708Z,86.09
2018-07-23T04:33:23.512Z,85.61
2018-07-23T04:34:23.507Z,85.71
2018-07-23T04:35:23.529Z,85.71
2018-07-23T04:36:23.519Z,85.9
2018-07-23T04:37:23.540Z,85.41
2018-07-23T04:38:23.570Z,85.51
2018-07-23T04:39:24.144Z,85.22
2018-07-23T04:40:23.498Z,85.31
2018-07-23T04:41:23.522Z,85.41
2018-07-23T04:42:23.673Z,85.13
2018-07-23T04:43:24.618Z,84.93
2018-07-23T04:44:23.536Z,84.93
2018-07-23T04:45:23.551Z,85.03
2018-07-23T04:46:23.616Z,84.64
2018-07-23T04:47:23.532Z,84.74
2018-07-23T04:48:23.529Z,84.35
2018-07-23T04:49:23.618Z,84.55
2018-07-23T04:50:23.553Z,84.55
2018-07-23T04:51:23.550Z,84.45
2018-07-23T04:52:23.535Z,84.55
2018-07-23T04:53:23.566Z,84.64
2018-07-23T04:54:23.653Z,84.45
2018-07-23T04:55:23.546Z,84.74
2018-07-23T04:56:23.580Z,84.55
2018-07-23T04:57:23.575Z,84.45
2018-07-23T04:58:23.540Z,84.45
2018-07-23T04:59:23.603Z,84.25
2018-07-23T05:00:23.574Z,84.35
2018-07-23T05:01:23.601Z,84.64
2018-07-23T05:02:23.592Z,84.45
2018-07-23T05:03:23.582Z,84.55
2018-07-23T05:04:23.567Z,84.35
2018-07-23T05:05:23.573Z,84.25
2018-07-23T05:06:23.579Z,84.35
2018-07-23T05:07:23.565Z,84.45
2018-07-23T05:08:23.601Z,84.35
2018-07-23T05:09:23.638Z,84.35
2018-07-23T05:10:24.192Z,84.35
2018-07-23T05:11:23.615Z,84.35
2018-07-23T05:12:23.964Z,84.25
2018-07-23T05:15:26.115Z,84.16
2018-07-23T05:16:04.389Z,84.35
2018-07-23T05:17:04.307Z,84.35
2018-07-23T05:18:04.349Z,84.16
2018-07-23T05:19:04.826Z,84.16
2018-07-23T05:20:04.500Z,84.35
2018-07-23T05:21:04.395Z,83.96
2018-07-23T05:22:04.297Z,84.25
2018-07-23T05:27:21.833Z,83.96
2018-07-23T05:27:35.980Z,83.96
2018-07-23T05:29:55.728Z,84.06
2018-07-23T05:30:55.688Z,84.16
2018-07-23T05:31:55.801Z,83.96
2018-07-23T05:32:55.677Z,83.96
2018-07-23T05:33:55.706Z,83.86
2018-07-23T05:34:55.688Z,83.77
2018-07-23T05:35:55.740Z,83.58
2018-07-23T05:36:55.783Z,83.48
2018-07-23T05:37:55.710Z,83.77
2018-07-23T05:38:55.705Z,83.67
2018-07-23T05:39:55.742Z,83.38
2018-07-23T05:40:55.690Z,83.67
2018-07-23T05:41:55.737Z,83.77
2018-07-23T05:42:55.764Z,83.86
2018-07-23T05:43:55.750Z,83.38
2018-07-23T05:44:55.891Z,83.38
2018-07-23T05:45:55.704Z,83.38
2018-07-23T05:46:55.793Z,83.58
2018-07-23T05:47:55.798Z,83.28
2018-07-23T05:48:55.823Z,83.58
2018-07-23T05:49:55.823Z,83.38
2018-07-23T05:50:55.856Z,83.67
2018-07-23T05:51:55.810Z,83.48
2018-07-23T05:52:55.774Z,83.48
2018-07-23T05:53:55.774Z,83.58
2018-07-23T05:54:55.819Z,83.77
2018-07-23T05:55:55.849Z,83.58
2018-07-23T05:56:55.803Z,83.58
2018-07-23T05:57:55.829Z,83.77
2018-07-23T05:58:56.014Z,83.58
2018-07-23T05:59:55.901Z,83.48
2018-07-23T06:00:55.905Z,83.48
2018-07-23T06:01:55.786Z,83.77
2018-07-23T06:02:55.850Z,83.38
2018-07-23T06:03:55.798Z,83.77
2018-07-23T06:04:55.841Z,83.58
2018-07-23T06:05:55.833Z,83.67
2018-07-23T06:06:55.915Z,83.67
2018-07-23T06:07:55.791Z,83.58
2018-07-23T06:08:55.732Z,83.38
2018-07-23T06:09:55.841Z,83.38
2018-07-23T06:10:55.785Z,83.38
2018-07-23T06:11:55.851Z,83.48
2018-07-23T06:12:55.804Z,83.48
2018-07-23T06:13:55.877Z,83.38
2018-07-23T06:14:55.798Z,83.58
2018-07-23T06:15:55.956Z,83.48
2018-07-23T06:16:55.828Z,83.38
2018-07-23T06:17:55.890Z,83.48
2018-07-23T06:18:55.835Z,83.48
2018-07-23T06:19:55.808Z,83.53
2018-07-23T06:20:55.791Z,83.58
2018-07-23T06:21:55.827Z,83.18
2018-07-23T06:22:55.898Z,83.18
2018-07-23T06:23:55.847Z,83.18
2018-07-23T06:24:55.903Z,83.09
2018-07-23T06:25:55.885Z,83.09
2018-07-23T06:26:55.807Z,83.48
2018-07-23T06:27:55.865Z,83
2018-07-23T06:28:55.856Z,83
2018-07-23T06:29:55.939Z,83.09
2018-07-23T06:30:55.849Z,83.09
2018-07-23T06:31:55.899Z,83.18
2018-07-23T06:32:55.921Z,83.38
2018-07-23T06:33:55.915Z,83.38
2018-07-23T06:34:55.870Z,83.38
2018-07-23T06:35:55.874Z,83.38
2018-07-23T06:36:55.887Z,83.28
2018-07-23T06:37:55.836Z,83.28
2018-07-23T06:38:55.803Z,83.09
2018-07-23T06:39:55.864Z,83.58
2018-07-23T06:40:55.881Z,83.48
2018-07-23T06:41:55.812Z,83
2018-07-23T06:42:55.870Z,83.48
2018-07-23T06:43:55.864Z,83.28
2018-07-23T06:44:55.937Z,83.18
2018-07-23T06:45:55.947Z,83.09
2018-07-23T06:46:55.814Z,83.09
2018-07-23T06:47:55.828Z,83.28
2018-07-23T06:48:55.831Z,83.18
2018-07-23T06:49:55.918Z,83
2018-07-23T06:50:55.933Z,83.09
2018-07-23T06:51:55.854Z,83.18
2018-07-23T06:52:55.915Z,82.95
2018-07-23T06:53:56.039Z,83.28
2018-07-23T06:54:55.839Z,83.18
2018-07-23T06:55:56.586Z,83.09
2018-07-23T06:56:55.908Z,83.28
2018-07-23T06:57:55.879Z,83.18
2018-07-23T06:58:55.955Z,82.8
2018-07-23T06:59:55.861Z,82.9
2018-07-23T07:00:55.835Z,83.18
2018-07-23T07:01:55.916Z,83
2018-07-23T07:02:55.945Z,82.7
2018-07-23T07:03:55.886Z,82.8
2018-07-23T07:04:55.899Z,83
2018-07-23T07:05:55.930Z,82.9
2018-07-23T07:06:55.885Z,82.9
2018-07-23T07:07:55.895Z,82.9
2018-07-23T07:08:55.964Z,82.9
2018-07-23T07:09:55.855Z,82.8
2018-07-23T07:10:56.020Z,83.18
2018-07-23T07:11:55.944Z,82.8
2018-07-23T07:12:55.885Z,83.09
2018-07-23T07:13:55.916Z,83.09
2018-07-23T07:14:55.962Z,83.09
2018-07-23T07:15:55.934Z,83.09
2018-07-23T07:16:55.950Z,83.09
2018-07-23T07:17:55.943Z,82.9
2018-07-23T07:18:55.888Z,82.8
2018-07-23T07:19:56.019Z,82.9
2018-07-23T07:20:55.966Z,82.9
2018-07-23T07:21:55.946Z,82.41
2018-07-23T07:22:55.957Z,82.8
2018-07-23T07:23:55.975Z,82.51
2018-07-23T07:24:55.942Z,82.51
2018-07-23T07:25:55.904Z,82.41
2018-07-23T07:26:56.051Z,82.51
2018-07-23T07:27:56.012Z,82.41
2018-07-23T07:28:55.991Z,82.6
2018-07-23T07:29:55.912Z,82.51
2018-07-23T07:30:55.967Z,82.6
2018-07-23T07:31:56.021Z,82.6
2018-07-23T07:32:55.967Z,82.51
2018-07-23T07:33:55.929Z,82.12
2018-07-23T07:34:56.074Z,82.41
2018-07-23T07:35:56.021Z,82.51
2018-07-23T07:36:56.040Z,82.32
2018-07-23T07:37:56.117Z,82.41
2018-07-23T07:38:55.970Z,82.41
2018-07-23T07:39:55.961Z,82.32
2018-07-23T07:40:56.028Z,82.6
2018-07-23T07:41:56.047Z,82.32
2018-07-23T07:42:55.950Z,82.51
2018-07-23T07:43:55.961Z,82.32
2018-07-23T07:44:56.019Z,82.51
2018-07-23T07:45:56.022Z,82.6
2018-07-23T07:46:56.043Z,82.51
2018-07-23T07:47:56.101Z,82.41
2018-07-23T07:48:55.945Z,82.12
2018-07-23T07:49:55.958Z,82.32
2018-07-23T07:50:56.002Z,82.41
2018-07-23T07:51:56.032Z,82.03
2018-07-23T07:52:55.976Z,82.12
2018-07-23T07:53:55.970Z,82.22
2018-07-23T07:54:56.040Z,82.32
2018-07-23T07:55:55.981Z,82.12
2018-07-23T07:56:55.937Z,82.41
2018-07-23T07:57:56.040Z,82.32
2018-07-23T07:58:55.967Z,82.12
2018-07-23T07:59:55.939Z,82.32
2018-07-23T08:00:56.025Z,82.41
2018-07-23T08:01:55.997Z,82.41
2018-07-23T08:02:56.037Z,82.51
2018-07-23T08:03:55.966Z,82.51
2018-07-23T08:04:56.060Z,82.7
2018-07-23T08:05:56.086Z,82.6
2018-07-23T08:06:55.983Z,82.51
2018-07-23T08:07:56.001Z,82.6
2018-07-23T08:08:56.066Z,82.6
2018-07-23T08:09:56.006Z,82.51
2018-07-23T08:10:56.025Z,82.6
2018-07-23T08:11:56.038Z,82.51
2018-07-23T08:12:56.024Z,81.93
2018-07-23T08:13:56.030Z,82.51
2018-07-23T08:14:56.017Z,82.22
2018-07-23T08:15:56.098Z,82.6
2018-07-23T08:16:55.981Z,81.83
2018-07-23T08:17:56.169Z,82.47
2018-07-23T08:18:56.075Z,82.22
2018-07-23T08:19:56.102Z,82.37
2018-07-23T08:20:56.090Z,82.32
2018-07-23T08:21:55.995Z,81.93
2018-07-23T08:22:56.021Z,81.93
2018-07-23T08:23:56.103Z,81.93
2018-07-23T08:24:56.039Z,82.12
2018-07-23T08:25:56.114Z,82.12
2018-07-23T08:26:56.039Z,82.03
2018-07-23T08:27:56.088Z,82.03
2018-07-23T08:28:56.039Z,81.93
2018-07-23T08:29:56.008Z,81.73
2018-07-23T08:30:56.070Z,82.12
2018-07-23T08:31:56.219Z,82.03
2018-07-23T08:32:56.096Z,82.32
2018-07-23T08:33:56.030Z,82.32
2018-07-23T08:34:55.996Z,82.12
2018-07-23T08:35:56.044Z,81.64
2018-07-23T08:36:56.077Z,81.6
2018-07-23T08:37:56.086Z,81.7
2018-07-23T08:38:56.098Z,81.93
2018-07-23T08:39:56.107Z,81.73
2018-07-23T08:40:56.202Z,81.73
2018-07-23T08:41:56.184Z,81.73
2018-07-23T08:42:56.093Z,81.83
2018-07-23T08:43:56.024Z,81.89
2018-07-23T08:44:56.096Z,81.89
2018-07-23T08:45:56.045Z,81.83
2018-07-23T08:46:56.085Z,81.89
2018-07-23T08:47:56.116Z,81.93
2018-07-23T08:48:56.123Z,81.83
2018-07-23T08:49:56.071Z,81.64
2018-07-23T08:50:56.177Z,82.03
2018-07-23T08:51:56.085Z,81.79
2018-07-23T08:52:56.115Z,81.73
2018-07-23T08:53:56.127Z,82.03
2018-07-23T08:54:56.068Z,81.73
2018-07-23T08:55:56.061Z,81.83
2018-07-23T08:56:56.078Z,81.93
2018-07-23T08:57:56.118Z,82.03
2018-07-23T08:58:56.094Z,82.12
2018-07-23T08:59:56.111Z,81.73
2018-07-23T09:00:56.189Z,82.03
2018-07-23T09:01:56.177Z,81.6
2018-07-23T09:04:16.469Z,81.93
2018-07-23T09:05:16.099Z,81.93
2018-07-23T09:06:16.105Z,81.73
2018-07-23T09:07:33.424Z,81.73
2018-07-23T09:08:33.203Z,81.73
2018-07-23T09:09:33.390Z,81.73
2018-07-23T09:10:33.181Z,81.83
2018-07-23T09:11:33.064Z,81.7
2018-07-23T09:12:33.102Z,81.54
2018-07-23T09:13:33.073Z,81.64
2018-07-23T09:14:33.151Z,81.54
2018-07-23T09:15:33.137Z,81.45
2018-07-23T09:16:33.115Z,81.45
2018-07-23T09:17:33.116Z,81.64
2018-07-23T09:18:33.140Z,81.54
2018-07-23T09:19:33.426Z,81.54
2018-07-23T09:20:33.118Z,81.45
2018-07-23T09:21:33.125Z,81.64
2018-07-23T09:22:33.088Z,81.45
2018-07-23T09:23:33.077Z,81.35
2018-07-23T09:24:33.052Z,81.35
2018-07-23T09:25:33.114Z,81.64
2018-07-23T09:26:33.063Z,81.35
2018-07-23T09:27:33.131Z,81.54
2018-07-23T09:28:33.214Z,81.21
2018-07-23T09:29:33.132Z,81.15
2018-07-23T09:30:33.196Z,81.35
2018-07-23T09:31:33.163Z,81.15
2018-07-23T09:32:33.175Z,81.15
2018-07-23T09:33:33.149Z,81.21
2018-07-23T09:34:33.153Z,81.25
2018-07-23T09:35:33.095Z,81.25
2018-07-23T09:36:33.195Z,81.35
2018-07-23T09:37:33.161Z,81.3
2018-07-23T09:38:34.006Z,81.25
2018-07-23T09:39:33.118Z,81.54
2018-07-23T09:40:33.168Z,81.45
2018-07-23T09:41:33.126Z,81.64
2018-07-23T09:42:33.163Z,81.45
2018-07-23T09:43:33.114Z,81.45
2018-07-23T09:44:33.216Z,81.54
2018-07-23T09:45:33.197Z,81.64
2018-07-23T09:46:33.169Z,81.45
2018-07-23T09:47:33.137Z,81.45
2018-07-23T09:48:33.277Z,81.4
2018-07-23T09:49:33.124Z,81.5
2018-07-23T09:50:33.149Z,81.4
2018-07-23T09:51:33.161Z,81.4
2018-07-23T09:52:33.169Z,81.25
2018-07-23T09:53:33.141Z,81.35
2018-07-23T09:54:33.088Z,81.45
2018-07-23T09:55:33.112Z,81.54
2018-07-23T09:56:33.179Z,81.35
2018-07-23T09:57:33.135Z,81.5
2018-07-23T09:58:33.245Z,81.45
2018-07-23T09:59:33.149Z,81.64
2018-07-23T10:00:33.159Z,81.35
2018-07-23T10:01:33.124Z,81.35
2018-07-23T10:02:34.111Z,81.25
2018-07-23T10:03:33.280Z,81.3
2018-07-23T10:04:33.182Z,81.05
2018-07-23T10:05:33.195Z,80.87
2018-07-23T10:06:33.137Z,80.87
2018-07-23T10:07:33.260Z,81.15
2018-07-23T10:08:33.166Z,81.45
2018-07-23T10:09:33.182Z,80.82
2018-07-23T10:10:33.186Z,80.96
2018-07-23T10:11:48.044Z,80.87
2018-07-23T10:12:33.196Z,80.82
2018-07-23T10:13:33.181Z,81.15
2018-07-23T10:14:33.138Z,81.05
2018-07-23T10:15:33.196Z,81.02
2018-07-23T10:16:33.188Z,81.05
2018-07-23T10:17:34.424Z,80.96
2018-07-23T10:18:33.200Z,81.05
2018-07-23T10:19:33.161Z,81.35
2018-07-23T10:20:33.189Z,81.45
2018-07-23T10:21:33.208Z,81.12
2018-07-23T10:22:33.195Z,81.45
2018-07-23T10:23:33.262Z,80.96
2018-07-23T10:24:33.238Z,81.02
2018-07-23T10:25:33.205Z,81.05
2018-07-23T10:26:33.296Z,81.25
2018-07-23T10:27:33.183Z,80.96
2018-07-23T10:28:33.224Z,80.87
2018-07-23T10:29:33.258Z,80.96
2018-07-23T10:30:33.306Z,81.15
2018-07-23T10:31:33.270Z,80.77
2018-07-23T10:32:33.266Z,80.77
2018-07-23T10:33:33.261Z,81.05
2018-07-23T10:34:33.279Z,80.92
2018-07-23T10:35:33.269Z,80.77
2018-07-23T10:36:33.280Z,80.96
2018-07-23T10:37:33.234Z,80.96
2018-07-23T10:38:33.166Z,81.05
2018-07-23T10:39:33.326Z,80.96
2018-07-23T10:40:33.255Z,80.57
2018-07-23T10:41:33.255Z,80.87
2018-07-23T10:42:33.263Z,80.96
2018-07-23T10:43:33.285Z,80.92
2018-07-23T10:44:33.252Z,80.87
2018-07-23T10:45:33.239Z,81.02
2018-07-23T10:46:33.226Z,80.87
2018-07-23T10:47:33.234Z,80.77
2018-07-23T10:48:33.229Z,80.67
2018-07-23T10:49:33.285Z,80.96
2018-07-23T10:50:33.207Z,80.77
2018-07-23T10:51:33.250Z,80.87
2018-07-23T10:52:33.219Z,80.57
2018-07-23T10:53:33.247Z,80.57
2018-07-23T10:54:33.218Z,80.57
2018-07-23T10:55:33.249Z,80.38
2018-07-23T10:56:33.344Z,80.67
2018-07-23T11:01:04.914Z,80.19
2018-07-23T11:02:05.761Z,80.24
2018-07-23T11:03:04.886Z,80.73
2018-07-23T11:04:04.920Z,80.19
2018-07-23T11:05:04.908Z,80.38
2018-07-23T11:06:04.883Z,80.09
2018-07-23T11:07:04.847Z,80.38
2018-07-23T11:08:04.857Z,80.24
2018-07-23T11:09:04.884Z,80.28
2018-07-23T11:10:04.933Z,80.28
2018-07-23T11:11:04.880Z,80.19
2018-07-23T11:12:04.983Z,80.28
2018-07-23T11:13:05.013Z,80.34
2018-07-23T11:14:04.921Z,80.34
2018-07-23T11:15:04.989Z,80.09
2018-07-23T11:16:04.877Z,79.99
2018-07-23T11:17:04.981Z,79.99
2018-07-23T11:18:04.980Z,80.09
2018-07-23T11:19:04.927Z,80.47
2018-07-23T11:20:04.935Z,80.09
2018-07-23T11:21:04.967Z,80.09
2018-07-23T11:22:04.914Z,79.99
2018-07-23T11:23:04.956Z,79.99
2018-07-23T11:24:05.052Z,79.95
2018-07-23T11:25:38.413Z,80.28
2018-07-23T11:26:05.064Z,80.24
2018-07-23T11:27:04.975Z,80.28
2018-07-23T11:28:05.057Z,80.05
2018-07-23T11:29:04.963Z,80.15
2018-07-23T11:30:04.967Z,80.57
2018-07-23T11:31:05.002Z,80.38
2018-07-23T11:32:05.017Z,80.54
2018-07-23T11:33:04.968Z,80.28
2018-07-23T11:34:05.044Z,80.38
2018-07-23T11:35:05.174Z,80.38
2018-07-23T11:36:05.002Z,80.47
2018-07-23T11:37:04.970Z,80.38
2018-07-23T11:38:04.919Z,80.47
2018-07-23T11:39:05.004Z,80.19
2018-07-23T11:40:05.051Z,80.28
2018-07-23T11:41:05.015Z,80.47
2018-07-23T11:42:05.009Z,80.38
2018-07-23T11:43:05.015Z,80.47
2018-07-23T11:44:04.995Z,79.9
2018-07-23T11:45:05.126Z,79.99
2018-07-23T11:46:05.007Z,79.9
2018-07-23T11:47:05.191Z,79.9
2018-07-23T11:48:04.972Z,79.9
2018-07-23T11:49:05.014Z,79.99
2018-07-23T11:50:05.067Z,80.09
2018-07-23T11:51:05.096Z,79.9
2018-07-23T11:52:05.068Z,79.99
2018-07-23T11:53:05.046Z,80.05
2018-07-23T11:54:05.055Z,80.19
2018-07-23T11:55:05.059Z,80.19
2018-07-23T11:56:04.996Z,80.19
2018-07-23T11:57:05.143Z,79.95
2018-07-23T11:58:05.205Z,80.19
2018-07-23T11:59:05.009Z,80.19
2018-07-23T12:00:05.081Z,80.19
2018-07-23T12:01:05.027Z,80.19
2018-07-23T12:02:05.104Z,79.5
2018-07-23T12:03:05.040Z,79.7
2018-07-23T12:04:10.404Z,79.6
2018-07-23T12:05:05.122Z,79.7
2018-07-23T12:06:04.995Z,79.5
2018-07-23T12:07:05.030Z,79.5
2018-07-23T12:08:05.045Z,79.6
2018-07-23T12:09:05.037Z,79.47
2018-07-23T12:10:05.049Z,79.76
2018-07-23T12:11:05.037Z,79.66
2018-07-23T12:12:05.015Z,79.5
2018-07-23T12:13:05.068Z,79.7
2018-07-23T12:14:04.992Z,79.9
2018-07-23T12:15:05.026Z,79.6
2018-07-23T12:16:05.061Z,79.8
2018-07-23T12:17:05.032Z,79.8
2018-07-23T12:18:05.594Z,79.9
2018-07-23T12:19:05.013Z,79.7
2018-07-23T12:20:05.040Z,79.8
2018-07-23T12:21:05.025Z,79.99
2018-07-23T12:22:05.104Z,79.6
2018-07-23T12:25:12.493Z,79.41
2018-07-23T12:25:24.885Z,79.12
2018-07-23T12:26:25.255Z,79.99
2018-07-23T12:27:24.899Z,79.12
2018-07-23T12:28:24.869Z,79.32
2018-07-23T12:29:24.935Z,79.12
2018-07-23T12:30:24.876Z,79.32
2018-07-23T12:31:24.887Z,79.22
2018-07-23T12:32:24.961Z,79.32
2018-07-23T12:33:24.958Z,79.41
2018-07-23T12:34:24.901Z,79.41
2018-07-23T12:35:24.847Z,79.41
2018-07-23T12:37:44.863Z,79.32
2018-07-23T12:38:44.927Z,79.41
2018-07-23T12:39:44.848Z,79.08
2018-07-23T12:40:44.780Z,79.22
2018-07-23T12:41:44.745Z,79.5
2018-07-23T12:42:44.893Z,79.32
2018-07-23T12:43:44.796Z,79.12
2018-07-23T12:44:44.824Z,79.5
2018-07-23T12:45:44.803Z,79.27
2018-07-23T12:46:44.906Z,79.02
2018-07-23T12:47:44.863Z,79.22
2018-07-23T12:48:44.834Z,79.02
2018-07-23T12:49:44.822Z,79.41
2018-07-23T12:50:44.786Z,79.02
2018-07-23T12:51:44.849Z,79.12
2018-07-23T12:52:44.931Z,79.02
2018-07-23T12:53:44.850Z,79.02
2018-07-23T12:54:44.912Z,79.41
2018-07-23T12:55:44.907Z,79.41
2018-07-23T12:56:44.887Z,79.32
2018-07-23T12:57:44.918Z,79.5
2018-07-23T12:58:44.883Z,79.41
2018-07-23T12:59:44.953Z,79.12
2018-07-23T13:00:44.868Z,79.22
2018-07-23T13:01:44.834Z,79.41
2018-07-23T13:02:44.908Z,79.22
2018-07-23T13:03:44.857Z,79.12
2018-07-23T13:04:44.968Z,79.5
2018-07-23T13:05:44.894Z,79.02
2018-07-23T13:06:44.900Z,79.32
2018-07-23T13:07:44.836Z,78.92
2018-07-23T13:08:44.923Z,79.12
2018-07-23T13:09:44.823Z,79.12
2018-07-23T13:10:44.899Z,79.32
2018-07-23T13:11:44.883Z,79.32
2018-07-23T13:12:44.922Z,78.92
2018-07-23T13:13:44.849Z,78.92
2018-07-23T13:19:04.121Z,79.02
2018-07-23T13:19:16.780Z,79.12
2018-07-23T13:20:16.661Z,78.92
2018-07-23T13:21:16.703Z,79.02